CU-0021 weather

Delicias South Airport
HolguĂ­n, Cuba

Public forecast

Using degrees Celsius for public forecast. Weather courtesy of forecast.io.

METAR (pilot weather report)

Closest report is Frank Pais International Airport, 7.2 nm (13.3 km) NNE. Retrieved 2019/05/19 23:50 UTC (15 minutes ago):

MUHG 192350Z 11008KT 8000 VCSH SCT018TCU BKN080 23/22 Q1014

TAF (pilot weather forecast)

Forecast is more than 12 hours old.

Closest forecast is Frank Pais International Airport, 7.2 nm (13.3 km) NNE. Retrieved 2019/05/19 00:03 UTC (1 day ago):

TAF MUHG 192300Z 2000/2024 08010KT 9000 SCT020 BECMG 2001/2003 VRB03KT BECMG 2015/2017 12008KT TEMPO 2018/2024 VRB10KT 3000 TSRA FEW018CB BKN020